Time;durP1;ratioP1;P1;durP2;ratioP2;P2;SDS_P1;SDS_P2;PMS_P1;PMS_P2;Temp;Humidity;BMP_temperature;BMP_pressure;BME280_temperature;BME280_humidity;BME280_pressure;Samples;Min_cycle;Max_cycle;Signal;HPM_P1;HPM_P2
2024/02/13 00:00:06;;;;;;;40.55;23.15;;;;;;;;;;4825069;29;20043;-76
2024/02/13 00:02:32;;;;;;;81.75;50.20;;;;;;;;;;4828178;29;20019;-76
2024/02/13 00:04:58;;;;;;;35.45;20.73;;;;;;;;;;4826178;29;20030;-75
2024/02/13 00:07:24;;;;;;;43.42;25.67;;;;;;;;;;4827291;29;20015;-78
2024/02/13 00:09:52;;;;;;;8.18;4.95;;;;;;;;;;4826093;29;20497;-78
2024/02/13 00:12:18;;;;;;;37.97;20.05;;;;;;;;;;4839157;29;20025;-79
2024/02/13 00:14:46;;;;;;;11.23;7.05;;;;;;;;;;4838638;29;20037;-77
2024/02/13 00:17:14;;;;;;;92.07;54.88;;;;;;;;;;4838589;29;20393;-79
2024/02/13 00:19:40;;;;;;;145.75;87.00;;;;;;;;;;4837766;29;20117;-78
2024/02/13 00:22:06;;;;;;;19.88;12.98;;;;;;;;;;4838321;29;20048;-78
2024/02/13 00:24:33;;;;;;;10.32;5.95;;;;;;;;;;4837674;29;20023;-79
2024/02/13 00:26:59;;;;;;;7.63;4.53;;;;;;;;;;4837868;29;20042;-77
2024/02/13 00:29:27;;;;;;;10.93;7.10;;;;;;;;;;4821855;29;20033;-79
2024/02/13 00:31:53;;;;;;;15.48;10.15;;;;;;;;;;4836574;29;20309;-79
2024/02/13 00:34:21;;;;;;;12.60;7.63;;;;;;;;;;4826484;29;20026;-75
2024/02/13 00:36:49;;;;;;;10.38;6.30;;;;;;;;;;4838713;29;20033;-77
2024/02/13 00:39:15;;;;;;;8.77;5.10;;;;;;;;;;4838091;29;20022;-78
2024/02/13 00:41:41;;;;;;;10.25;5.28;;;;;;;;;;4841394;29;20040;-78
2024/02/13 00:44:07;;;;;;;36.13;20.25;;;;;;;;;;4837144;29;20022;-78
2024/02/13 00:46:34;;;;;;;41.05;24.08;;;;;;;;;;4837155;29;20485;-77
2024/02/13 00:49:02;;;;;;;44.30;26.27;;;;;;;;;;4838086;29;20071;-77
2024/02/13 00:51:28;;;;;;;36.15;22.10;;;;;;;;;;4838049;29;20058;-75
2024/02/13 00:53:54;;;;;;;95.93;59.35;;;;;;;;;;4822039;29;20050;-76
2024/02/13 00:56:21;;;;;;;13.32;8.65;;;;;;;;;;4828565;29;20026;-78
2024/02/13 00:58:47;;;;;;;5.15;3.83;;;;;;;;;;4823230;29;20030;-78
2024/02/13 01:01:13;;;;;;;26.02;18.20;;;;;;;;;;4830871;29;20042;-79
2024/02/13 01:03:43;;;;;;;8.45;6.43;;;;;;;;;;4837448;29;20034;-75
2024/02/13 01:06:09;;;;;;;11.70;7.13;;;;;;;;;;4837356;29;20485;-77
2024/02/13 01:08:37;;;;;;;15.02;9.75;;;;;;;;;;4837263;29;20059;-75
2024/02/13 01:11:03;;;;;;;11.90;7.38;;;;;;;;;;4836254;29;20137;-76
2024/02/13 01:13:31;;;;;;;55.85;32.60;;;;;;;;;;4835881;29;20068;-75
2024/02/13 01:15:58;;;;;;;211.90;108.25;;;;;;;;;;4821190;29;20038;-76
2024/02/13 01:18:24;;;;;;;23.60;10.68;;;;;;;;;;4810394;29;20089;-75
2024/02/13 01:20:50;;;;;;;92.82;58.45;;;;;;;;;;4838103;29;20524;-76
2024/02/13 01:23:16;;;;;;;9.95;8.23;;;;;;;;;;4836902;29;20045;-76
2024/02/13 01:25:43;;;;;;;8.27;7.40;;;;;;;;;;4844583;29;20042;-77
2024/02/13 01:28:09;;;;;;;14.80;13.32;;;;;;;;;;4838540;29;20018;-75
2024/02/13 01:30:35;;;;;;;8.73;5.07;;;;;;;;;;4838192;29;20074;-77
2024/02/13 01:33:01;;;;;;;5.05;3.30;;;;;;;;;;4838107;29;20030;-76
2024/02/13 01:35:28;;;;;;;5.53;3.42;;;;;;;;;;4821552;29;20044;-77
2024/02/13 01:37:56;;;;;;;6.05;3.83;;;;;;;;;;4838086;29;20181;-77
2024/02/13 01:40:22;;;;;;;6.60;3.58;;;;;;;;;;4821496;29;20026;-77
2024/02/13 01:42:49;;;;;;;5.45;3.75;;;;;;;;;;4839174;29;20449;-77
2024/02/13 01:45:16;;;;;;;8.20;3.90;;;;;;;;;;4851961;29;20049;-78
2024/02/13 01:47:43;;;;;;;7.57;4.72;;;;;;;;;;4841701;29;20033;-77
2024/02/13 01:50:17;;;;;;;8.02;3.72;;;;;;;;;;4841433;29;20066;-77
2024/02/13 01:52:44;;;;;;;6.60;3.70;;;;;;;;;;4824925;29;20026;-76
2024/02/13 01:55:12;;;;;;;7.78;4.30;;;230.40;2252.80;;;;;;4841634;29;20065;-77
2024/02/13 01:57:40;;;;;;;13.57;9.30;;;205.60;2252.80;;;;;;4841635;29;20412;-76
2024/02/13 02:00:13;;;;;;;8.55;6.35;;;;;;;;;;4841841;29;20120;-76
2024/02/13 02:02:39;;;;;;;;;;;;;;;;;;4841743;29;20467;-77
2024/02/13 02:05:07;;;;;;;8.68;4.65;;;;;;;;;;4841431;29;19909;-77
2024/02/13 02:07:33;;;;;;;7.63;5.68;;;;;;;;;;4841035;29;20037;-78
2024/02/13 02:09:59;;;;;;;7.72;5.78;;;;;;;;;;4841669;29;20393;-77
2024/02/13 02:12:25;;;;;;;11.80;10.15;;;;;;;;;;4824611;29;20445;-78
2024/02/13 02:14:52;;;;;;;34.60;31.80;;;;;;;;;;4841098;29;20030;-78
2024/02/13 02:17:18;;;;;;;7.78;6.50;;;;;;;;;;4824440;29;20034;-77
2024/02/13 02:19:44;;;;;;;4.70;3.40;;;;;;;;;;4840873;29;20048;-76
2024/02/13 02:22:10;;;;;;;6.78;3.88;;;230.60;2252.80;;;;;;4841061;29;20034;-76
2024/02/13 02:24:36;;;;;;;8.02;4.90;;;230.40;2252.80;;;;;;4840599;29;20042;-77
2024/02/13 02:27:02;;;;;;;7.50;4.97;;;205.60;2252.80;;;;;;4840976;29;20062;-77
2024/02/13 02:29:30;;;;;;;7.63;5.10;;;205.60;2252.80;;;;;;4840888;29;20036;-76
2024/02/13 02:31:56;;;;;;;11.43;7.53;;;205.50;2252.80;;;;;;4840560;29;20397;-77
2024/02/13 02:34:21;;;;;;;8.75;6.05;;;205.60;2252.80;;;;;;4840560;29;20033;-76
2024/02/13 02:36:50;;;;;;;9.88;6.35;;;205.70;2252.80;;;;;;4840648;29;20026;-77
2024/02/13 02:39:16;;;;;;;8.48;4.50;;;205.70;2252.80;;;;;;4840740;29;20472;-76
2024/02/13 02:41:42;;;;;;;7.72;4.07;;;205.70;2252.80;;;;;;4840878;29;20421;-77
2024/02/13 02:44:08;;;;;;;12.13;7.10;;;230.40;2252.80;;;;;;4840462;29;20034;-76
2024/02/13 02:46:35;;;;;;;6.93;4.80;;;205.70;2252.80;;;;;;4824057;29;20034;-76
2024/02/13 02:49:01;;;;;;;10.15;5.95;;;205.70;2252.80;;;;;;4840369;29;20026;-77
2024/02/13 02:51:27;;;;;;;5.05;3.17;;;230.40;2252.80;;;;;;4840392;29;20034;-76
2024/02/13 02:53:53;;;;;;;6.15;4.65;;;230.40;2252.80;;;;;;4839250;29;20557;-76
2024/02/13 02:56:19;;;;;;;7.57;5.70;;;230.40;2252.80;;;;;;4823489;29;20046;-75
2024/02/13 02:58:44;;;;;;;9.15;5.50;;;230.40;2252.80;;;;;;4840448;29;20481;-77
2024/02/13 03:01:10;;;;;;;20.45;5.70;;;205.70;2252.80;;;;;;4840708;29;20061;-77
2024/02/13 03:03:36;;;;;;;8.55;5.05;;;205.70;2252.80;;;;;;4839976;29;20137;-77
2024/02/13 03:06:05;;;;;;;7.32;4.35;;;230.50;2252.80;;;;;;4839974;29;20529;-77
2024/02/13 03:08:32;;;;;;;5.70;3.15;;;230.60;2252.80;;;;;;4840298;29;20033;-76
2024/02/13 03:10:58;;;;;;;14.93;7.45;;;230.60;2252.80;;;;;;4840427;29;20496;-77
2024/02/13 03:13:24;;;;;;;15.60;7.93;;;230.60;2252.80;;;;;;4839931;29;20030;-76
2024/02/13 03:15:50;;;;;;;14.40;13.15;;;230.60;2252.80;;;;;;4841640;29;20080;-77
2024/02/13 03:18:19;;;;;;;10.07;6.97;;;230.60;2252.80;;;;;;4839589;29;20071;-77
2024/02/13 03:20:46;;;;;;;6.05;4.03;;;230.70;2252.80;;;;;;4840129;29;20037;-77
2024/02/13 03:23:12;;;;;;;6.47;3.35;;;230.80;2252.80;;;;;;4840024;29;20221;-76
2024/02/13 03:25:38;;;;;;;6.10;3.72;;;230.90;2252.80;;;;;;4840237;29;20036;-76
2024/02/13 03:28:05;;;;;;;7.22;3.38;;;230.90;2252.80;;;;;;4839879;29;20484;-76
2024/02/13 03:30:31;;;;;;;5.75;3.72;;;230.90;2252.80;;;;;;4840161;29;20048;-77
2024/02/13 03:32:56;;;;;;;10.70;6.13;;;231.00;2252.80;;;;;;4839518;29;20022;-76
2024/02/13 03:35:22;;;;;;;11.90;5.95;;;231.00;2252.80;;;;;;4839701;29;20363;-76
2024/02/13 03:37:48;;;;;;;8.48;4.97;;;231.00;2252.80;;;;;;4839898;29;20030;-76
2024/02/13 03:40:16;;;;;;;9.77;4.68;;;231.00;2252.80;;;;;;4839765;29;20033;-76
2024/02/13 03:42:43;;;;;;;9.23;3.58;;;231.00;2252.80;;;;;;4839575;29;20026;-77
2024/02/13 03:45:10;;;;;;;9.45;3.85;;;231.00;2252.80;;;;;;4839976;29;20030;-77
2024/02/13 03:47:36;;;;;;;8.68;4.38;;;231.10;2252.80;;;;;;4839371;29;20030;-76
2024/02/13 03:50:02;;;;;;;7.70;4.28;;;231.10;2252.80;;;;;;4839658;29;20046;-76
2024/02/13 03:52:28;;;;;;;5.57;3.10;;;231.10;2252.80;;;;;;4822655;29;20452;-76
2024/02/13 03:54:54;;;;;;;6.50;3.38;;;231.10;2252.80;;;;;;4839468;29;20050;-76
2024/02/13 03:57:20;;;;;;;10.15;8.77;;;231.20;2252.80;;;;;;4839302;29;20033;-76
2024/02/13 03:59:46;;;;;;;4.50;2.53;;;231.30;2252.80;;;;;;4839224;29;20138;-77
2024/02/13 04:02:12;;;;;;;9.45;8.68;;;231.30;2252.80;;;;;;4834340;29;20496;-77
2024/02/13 04:04:37;;;;;;;25.13;22.95;;;256.00;2252.80;;;;;;4832181;29;20094;-76
2024/02/13 04:07:04;;;;;;;7.55;5.28;;;231.30;2252.80;;;;;;4838625;29;20109;-76
2024/02/13 04:09:31;;;;;;;4.72;2.55;;;231.30;2252.80;;;;;;4839185;29;20026;-75
2024/02/13 04:11:57;;;;;;;4.60;2.33;;;231.30;2252.80;;;;;;4839399;29;20030;-77
2024/02/13 04:14:23;;;;;;;6.10;2.72;;;231.30;2252.80;;;;;;4839047;29;20029;-79
2024/02/13 04:16:49;;;;;;;5.07;2.60;;;231.30;2252.80;;;;;;4839007;29;20030;-76
2024/02/13 04:19:15;;;;;;;4.57;3.08;;;231.30;2252.80;;;;;;4822708;29;20477;-77
2024/02/13 04:21:41;;;;;;;24.15;15.95;;;231.30;2252.80;;;;;;4838723;29;20763;-78
2024/02/13 04:24:07;;;;;;;8.63;4.15;;;231.30;2252.80;;;;;;4839315;29;20058;-78
2024/02/13 04:26:38;;;;;;;6.10;3.00;;;231.20;2252.80;;;;;;4838691;29;20028;-77
2024/02/13 04:29:03;;;;;;;8.50;6.57;;;231.20;2252.80;;;;;;4837462;29;20055;-77
2024/02/13 04:31:29;;;;;;;6.72;4.15;;;231.30;2252.80;;;;;;4838659;29;20493;-77
2024/02/13 04:33:55;;;;;;;5.22;3.55;;;231.30;2252.80;;;;;;4838626;29;20552;-77
2024/02/13 04:36:21;;;;;;;5.25;2.50;;;231.30;2252.80;;;;;;4822541;29;20484;-76
2024/02/13 04:38:47;;;;;;;6.85;2.33;;;231.30;2252.80;;;;;;4838678;29;20022;-77
2024/02/13 04:41:13;;;;;;;4.18;2.30;;;231.30;2252.80;;;;;;4838831;29;20026;-77
2024/02/13 04:43:39;;;;;;;5.88;2.58;;;231.30;2252.80;;;;;;4838871;29;20030;-76
2024/02/13 04:46:06;;;;;;;4.13;2.50;;;256.00;2252.80;;;;;;4838685;29;20050;-77
2024/02/13 04:48:31;;;;;;;8.85;3.08;;;256.00;2252.80;;;;;;4838544;29;20028;-78
2024/02/13 04:50:57;;;;;;;5.53;3.15;;;231.30;2252.80;;;;;;4838593;29;20461;-77
2024/02/13 04:53:23;;;;;;;5.03;2.20;;;231.30;2252.80;;;;;;4838116;29;20069;-77
2024/02/13 04:55:49;;;;;;;4.03;2.55;;;231.30;2252.80;;;;;;4822267;29;20046;-78
2024/02/13 04:58:17;;;;;;;7.57;3.72;;;256.00;2252.80;;;;;;4838518;29;20474;-77
2024/02/13 05:01:01;;;;;;;5.40;3.03;;;231.30;2252.80;;;;;;4838481;29;20034;-77
2024/02/13 05:03:39;;;;;;;8.80;3.38;;;231.30;2252.80;;;;;;4850504;29;20069;-77
2024/02/13 05:08:55;;;;;;;16.25;5.43;;;231.30;2252.80;;;;;;4838549;29;20045;-77
2024/02/13 05:11:28;;;;;;;12.95;5.90;;;231.30;2252.80;;;;;;4838314;29;20174;-78
2024/02/13 05:13:54;;;;;;;14.32;5.95;;;231.30;2252.80;;;;;;4838299;29;20030;-78
2024/02/13 05:16:20;;;;;;;6.80;2.88;;;231.30;2252.80;;;;;;4838362;29;20034;-77
2024/02/13 05:18:46;;;;;;;10.45;5.15;;;231.30;2252.80;;;;;;4837723;29;20442;-78
2024/02/13 05:21:20;;;;;;;5.32;3.10;;;256.00;2252.80;;;;;;4838255;29;20030;-78
2024/02/13 05:23:49;;;;;;;6.97;3.50;;;231.30;2252.80;;;;;;4837059;29;20099;-78
2024/02/13 05:26:17;;;;;;;6.28;3.15;;;231.30;2252.80;;;;;;4837934;29;20034;-77
2024/02/13 05:28:43;;;;;;;7.55;3.20;;;231.30;2252.80;;;;;;4821912;29;20094;-78
2024/02/13 05:31:09;;;;;;;6.60;3.03;;;231.30;2252.80;;;;;;4838381;29;20033;-76
2024/02/13 05:33:35;;;;;;;10.45;3.45;;;231.30;2252.80;;;;;;4838057;29;20022;-78
2024/02/13 05:36:02;;;;;;;5.28;3.40;;;231.20;2252.80;;;;;;4837794;29;20485;-77
2024/02/13 05:38:28;;;;;;;16.92;10.80;;;231.30;2252.80;;;;;;4838445;29;20082;-77
2024/02/13 05:40:54;;;;;;;11.52;6.00;;;231.20;2252.80;;;;;;4837934;29;20030;-78
2024/02/13 05:43:20;;;;;;;7.35;5.35;;;231.20;2252.80;;;;;;4838315;29;20030;-77
2024/02/13 05:45:49;;;;;;;8.50;7.53;;;231.30;2252.80;;;;;;4838036;29;20030;-77
2024/02/13 05:48:18;;;;;;;7.30;3.05;;;231.20;2252.80;;;;;;4838026;29;20029;-77
2024/02/13 05:50:45;;;;;;;5.03;3.35;;;231.30;2252.80;;;;;;4837766;29;20034;-77
2024/02/13 05:53:11;;;;;;;9.18;3.15;;;231.30;2252.80;;;;;;4837617;29;20030;-77
2024/02/13 05:55:37;;;;;;;8.10;3.75;;;231.30;2252.80;;;;;;4838098;29;20057;-77
2024/02/13 05:58:03;;;;;;;4.85;2.92;;;256.00;2252.80;;;;;;4837782;29;20394;-77
2024/02/13 06:00:31;;;;;;;7.35;4.00;;;256.00;2252.80;;;;;;4838001;29;20105;-77
2024/02/13 06:02:56;;;;;;;6.15;3.45;;;256.00;2252.80;;;;;;4837590;29;20057;-78
2024/02/13 06:05:23;;;;;;;140.55;86.80;;;256.00;2252.80;;;;;;4837665;29;20478;-75
2024/02/13 06:07:50;;;;;;;11.95;7.57;;;256.10;2252.80;;;;;;4837922;29;20026;-77
2024/02/13 06:10:16;;;;;;;5.88;4.22;;;256.10;2252.80;;;;;;4837682;29;20041;-76
2024/02/13 06:12:44;;;;;;;12.07;6.10;;;256.20;2252.80;;;;;;4837837;29;20094;-76
2024/02/13 06:15:09;;;;;;;13.50;5.38;;;256.30;2252.80;;;;;;4837771;29;20074;-77
2024/02/13 06:17:39;;;;;;;8.27;4.20;;;256.30;2252.80;;;;;;4837642;29;20026;-77
2024/02/13 06:20:05;;;;;;;7.60;5.45;;;256.50;2252.80;;;;;;4837684;29;20083;-77
2024/02/13 06:22:32;;;;;;;7.57;4.38;;;256.40;2252.80;;;;;;4837538;29;20438;-78
2024/02/13 06:25:04;;;;;;;7.05;4.13;;;256.40;2252.80;;;;;;4837806;29;20058;-77
2024/02/13 06:27:34;;;;;;;9.88;4.47;;;256.40;2252.80;;;;;;4837748;29;20354;-78
2024/02/13 06:30:00;;;;;;;8.48;4.45;;;256.50;2252.80;;;;;;4839126;29;20131;-77
2024/02/13 06:32:26;;;;;;;8.52;5.03;;;256.60;2252.80;;;;;;4840761;29;20109;-78
2024/02/13 06:34:53;;;;;;;7.07;5.03;;;256.60;2252.80;;;;;;4841024;29;20030;-77
2024/02/13 06:37:22;;;;;;;9.60;5.72;;;256.50;2252.80;;;;;;4840723;29;20414;-77
2024/02/13 06:39:51;;;;;;;15.25;7.88;;;256.60;2252.80;;;;;;4840998;29;20034;-78
2024/02/13 06:42:17;;;;;;;10.75;6.85;;;256.70;2252.80;;;;;;4840677;29;20107;-78
2024/02/13 06:44:43;;;;;;;22.17;13.32;;;256.70;2252.80;;;;;;4840630;29;20473;-78
2024/02/13 06:47:10;;;;;;;11.30;6.50;;;256.80;2252.80;;;;;;4840662;29;20437;-77
2024/02/13 06:49:37;;;;;;;14.07;7.78;;;256.90;2252.80;;;;;;4840722;29;20029;-78
2024/02/13 06:52:06;;;;;;;14.52;7.55;;;256.90;2252.80;;;;;;4840213;29;20059;-77
2024/02/13 06:54:32;;;;;;;8.80;6.10;;;281.60;2278.40;;;;;;4823715;29;20450;-77
2024/02/13 06:56:59;;;;;;;9.90;6.32;;;256.80;2252.80;;;;;;4840519;29;20385;-77
2024/02/13 06:59:27;;;;;;;16.00;8.48;;;256.80;2252.80;;;;;;4840213;29;20022;-77
2024/02/13 07:01:53;;;;;;;11.18;7.15;;;256.90;2252.80;;;;;;4840098;29;20045;-78
2024/02/13 07:04:19;;;;;;;10.02;6.97;;;256.80;2252.80;;;;;;4840460;29;20030;-77
2024/02/13 07:06:44;;;;;;;10.55;7.60;;;256.90;2252.80;;;;;;4840318;29;20022;-77
2024/02/13 07:09:11;;;;;;;9.50;6.82;;;256.90;2252.80;;;;;;4840669;29;20042;-77
2024/02/13 07:11:37;;;;;;;12.70;6.93;;;256.90;2252.80;;;;;;4840260;29;20046;-77
2024/02/13 07:14:03;;;;;;;11.52;6.78;;;281.60;2278.40;;;;;;4840238;29;20041;-77
2024/02/13 07:16:28;;;;;;;28.55;16.05;;;281.60;2278.40;;;;;;4840192;29;20101;-77
2024/02/13 07:18:54;;;;;;;84.32;49.35;;;281.70;2278.40;;;;;;4840011;29;20026;-77
2024/02/13 07:21:20;;;;;;;27.50;19.55;;;281.70;2278.40;;;;;;4823234;29;20038;-78
2024/02/13 07:23:46;;;;;;;15.10;10.68;;;281.70;2278.40;;;;;;4839897;29;20086;-77
2024/02/13 07:26:12;;;;;;;11.70;7.97;;;281.70;2278.40;;;;;;4839802;29;20038;-77
2024/02/13 07:28:39;;;;;;;35.97;27.30;;;281.70;2278.40;;;;;;4840145;29;20086;-76
2024/02/13 07:31:10;;;;;;;9.93;6.53;;;281.60;2278.40;;;;;;4839611;29;20048;-76
2024/02/13 07:33:37;;;;;;;12.18;9.85;;;;;;;;;;4839742;29;20049;-76
2024/02/13 07:36:05;;;;;;;12.07;10.63;;;;;;;;;;4839598;29;20026;-77
2024/02/13 07:38:32;;;;;;;18.00;15.57;;;;;;;;;;4839755;29;20049;-77
2024/02/13 07:40:58;;;;;;;10.93;6.05;;;282.00;2278.40;;;;;;4838924;29;20022;-76
2024/02/13 07:43:25;;;;;;;15.07;6.07;;;281.80;2278.40;;;;;;4823235;29;20038;-77
2024/02/13 07:45:51;;;;;;;10.02;7.25;;;281.80;2278.40;;;;;;4852110;29;20030;-78
2024/02/13 07:48:17;;;;;;;9.05;6.60;;;282.00;2278.40;;;;;;4839714;29;20026;-77
2024/02/13 07:50:42;;;;;;;33.67;27.23;;;282.10;2278.40;;;;;;4839520;29;20034;-77
2024/02/13 07:53:10;;;;;;;10.15;6.55;;;282.20;2278.40;;;;;;4839160;29;20030;-77
2024/02/13 07:55:36;;;;;;;23.27;16.38;;;282.30;2278.40;;;;;;4839211;29;20094;-77
2024/02/13 07:58:05;;;;;;;7.25;4.97;;;282.30;2278.40;;;;;;4839163;29;20026;-77
2024/02/13 08:00:33;;;;;;;23.90;18.85;;;282.40;2278.40;;;;;;4844173;29;20033;-78
2024/02/13 08:03:01;;;;;;;8.98;5.45;;;282.40;2278.40;;;;;;4830262;29;20564;-77
2024/02/13 08:05:33;;;;;;;7.78;5.72;;;282.40;2278.40;;;;;;4843215;29;20442;-77
2024/02/13 08:08:02;;;;;;;22.27;14.02;;;282.40;2278.40;;;;;;4845512;29;20119;-76
2024/02/13 08:10:29;;;;;;;15.70;10.07;;;282.40;2278.40;;;;;;4827366;29;20049;-76
2024/02/13 08:12:57;;;;;;;19.00;11.93;;;282.50;2278.40;;;;;;4839332;29;20026;-77
2024/02/13 08:15:23;;;;;;;12.82;7.03;;;307.20;2304.00;;;;;;4838802;29;20022;-76
2024/02/13 08:17:49;;;;;;;8.23;5.35;;;307.40;2304.00;;;;;;4838949;29;20029;-77
2024/02/13 08:20:14;;;;;;;10.40;6.70;;;307.30;2304.00;;;;;;4839153;29;20042;-76
2024/02/13 08:22:40;;;;;;;8.35;5.40;;;307.50;2304.00;;;;;;4838577;29;20117;-78
2024/02/13 08:25:07;;;;;;;8.88;5.28;;;307.40;2304.00;;;;;;4839069;29;20030;-77
2024/02/13 08:27:37;;;;;;;7.15;4.82;;;307.40;2304.00;;;;;;4835801;29;20030;-77
2024/02/13 08:30:09;;;;;;;8.07;5.03;;;307.40;2304.00;;;;;;4838783;29;20046;-77
2024/02/13 08:32:38;;;;;;;9.30;6.03;;;307.20;2304.00;;;;;;4838372;29;20029;-76
2024/02/13 08:35:05;;;;;;;8.85;5.80;;;307.20;2304.00;;;;;;4819637;29;20038;-83
2024/02/13 08:37:31;;;;;;;10.02;7.90;;;282.50;2278.40;;;;;;4823898;29;20049;-82
2024/02/13 08:39:57;;;;;;;7.78;5.40;;;307.20;2304.00;;;;;;4829121;29;20473;-90
2024/02/13 08:42:23;;;;;;;10.60;6.20;;;282.40;2278.40;;;;;;4839002;29;20042;-89
2024/02/13 08:44:49;;;;;;;9.25;5.35;;;282.30;2278.40;;;;;;4835557;29;20125;-89
2024/02/13 08:47:17;;;;;;;8.85;6.30;;;282.50;2278.40;;;;;;4823493;29;20164;-90
2024/02/13 08:49:42;;;;;;;7.30;4.75;;;307.30;2304.00;;;;;;4838656;29;20071;-82
2024/02/13 08:52:10;;;;;;;9.93;5.60;;;307.50;2304.00;;;;;;4822395;29;20050;-83
2024/02/13 08:54:38;;;;;;;7.55;5.28;;;307.60;2304.00;;;;;;4836508;29;20123;-82
2024/02/13 08:57:04;;;;;;;6.75;4.72;;;307.70;2304.00;;;;;;4820935;29;20030;-85
2024/02/13 08:59:31;;;;;;;9.23;5.55;;;307.90;2304.00;;;;;;4837517;29;20401;-82
2024/02/13 09:01:57;;;;;;;9.65;5.22;;;308.10;2304.00;;;;;;4837501;29;20090;-85
2024/02/13 09:04:23;;;;;;;9.35;6.50;;;308.10;2304.00;;;;;;4837389;29;20040;-84
2024/02/13 09:06:49;;;;;;;7.60;5.15;;;308.10;2304.00;;;;;;4838855;29;20105;-84
2024/02/13 09:09:15;;;;;;;7.40;5.07;;;308.00;2304.00;;;;;;4822383;29;20038;-82
2024/02/13 09:11:41;;;;;;;10.40;6.65;;;308.10;2304.00;;;;;;4822293;29;20098;-83
2024/02/13 09:14:07;;;;;;;7.85;5.22;;;;;;;;;;4834011;29;20030;-82
2024/02/13 09:16:34;;;;;;;7.90;4.47;;;;;;;;;;4835024;29;20446;-75
2024/02/13 09:19:00;;;;;;;11.63;6.45;;;;;;;;;;4833312;29;20026;-76
2024/02/13 09:21:28;;;;;;;9.30;6.75;;;;;;;;;;4835018;29;20041;-75
2024/02/13 09:23:54;;;;;;;7.50;5.13;;;;;;;;;;4837652;29;20034;-75
2024/02/13 09:26:20;;;;;;;6.50;5.60;;;;;;;;;;4838017;29;20038;-76
2024/02/13 09:28:46;;;;;;;6.75;5.60;;;;;;;;;;4837456;29;20030;-75
2024/02/13 09:31:13;;;;;;;6.25;4.03;;;358.60;2329.60;;;;;;4837584;29;20094;-76
2024/02/13 09:33:40;;;;;;;4.60;3.85;;;;;;;;;;4838027;29;20026;-84
2024/02/13 09:36:11;;;;;;;9.20;6.22;;;384.90;2304.00;;;;;;4837661;29;20425;-74
2024/02/13 09:38:38;;;;;;;10.48;6.95;;;409.80;2278.40;;;;;;4837429;29;20056;-81
2024/02/13 09:41:04;;;;;;;7.00;4.45;;;384.80;2278.40;;;;;;4837776;29;20110;-87
2024/02/13 09:43:31;;;;;;;6.28;4.78;;;384.30;2304.00;;;;;;4841488;29;20053;-76
2024/02/13 09:45:57;;;;;;;6.15;4.20;;;359.30;2329.60;;;;;;4842025;29;20037;-76
2024/02/13 09:48:23;;;;;;;6.95;5.38;;;359.10;2329.60;;;;;;4837910;29;20034;-77
2024/02/13 09:50:50;;;;;;;6.53;4.78;;;358.70;2329.60;;;;;;4837779;29;20037;-77
2024/02/13 09:53:27;;;;;;;8.18;5.35;;;358.40;2329.60;;;;;;4837941;29;20065;-76
2024/02/13 09:55:55;;;;;;;8.85;7.38;;;333.70;2329.60;;;;;;4839890;29;20420;-82
2024/02/13 09:58:21;;;;;;;6.30;4.15;;;358.50;2329.60;;;;;;4840897;29;20026;-76
2024/02/13 10:00:47;;;;;;;7.38;5.10;;;358.40;2329.60;;;;;;4842342;29;20051;-82
2024/02/13 10:03:13;;;;;;;9.18;5.28;;;358.60;2329.60;;;;;;4844673;29;20029;-83
2024/02/13 10:05:39;;;;;;;8.93;5.05;;;358.60;2329.60;;;;;;4847176;29;20061;-76
2024/02/13 10:08:07;;;;;;;10.68;8.93;;;333.60;2329.60;;;;;;4846380;29;20075;-80
2024/02/13 10:10:34;;;;;;;6.60;4.78;;;332.90;2329.60;;;;;;4842742;29;20118;-86
2024/02/13 10:13:00;;;;;;;10.27;8.43;;;333.30;2329.60;;;;;;4842907;29;20082;-82
2024/02/13 10:15:56;;;;;;;11.35;7.72;;;333.30;2329.60;;;;;;4841693;29;20053;-84
2024/02/13 10:18:24;;;;;;;9.15;8.15;;;333.30;2329.60;;;;;;4806271;29;20141;-77
2024/02/13 10:20:51;;;;;;;7.93;5.32;;;333.40;2329.60;;;;;;4806825;29;20038;-87
2024/02/13 10:23:18;;;;;;;9.45;7.43;;;333.40;2329.60;;;;;;4804624;29;20293;-79
2024/02/13 10:25:44;;;;;;;12.13;9.70;;;333.40;2329.60;;;;;;4802781;29;20045;-76
2024/02/13 10:28:13;;;;;;;10.18;7.38;;;333.20;2329.60;;;;;;4802411;29;20078;-79
2024/02/13 10:30:39;;;;;;;9.15;5.22;;;333.20;2329.60;;;;;;4802642;29;20039;-77
2024/02/13 10:33:09;;;;;;;5.93;3.80;;;333.40;2329.60;;;;;;4801958;29;20069;-77
2024/02/13 10:35:35;;;;;;;13.50;8.73;;;333.40;2329.60;;;;;;4802224;29;20510;-83
2024/02/13 10:38:07;;;;;;;8.55;5.63;;;358.50;2329.60;;;;;;4787392;29;20406;-82
2024/02/13 10:40:35;;;;;;;8.13;6.20;;;358.70;2329.60;;;;;;4787017;29;20074;-83
2024/02/13 10:43:03;;;;;;;8.85;5.95;;;358.60;2329.60;;;;;;4787617;29;20035;-83
2024/02/13 10:45:32;;;;;;;13.43;9.80;;;358.50;2329.60;;;;;;4787618;29;20189;-82
2024/02/13 10:48:06;;;;;;;12.18;7.88;;;333.70;2329.60;;;;;;4802905;29;20080;-83
2024/02/13 10:50:35;;;;;;;11.23;7.05;;;333.30;2329.60;;;;;;4802814;29;20043;-87
2024/02/13 10:53:03;;;;;;;7.57;4.93;;;333.20;2329.60;;;;;;4795763;29;20031;-87
2024/02/13 10:55:33;;;;;;;9.00;5.47;;;333.10;2329.60;;;;;;4820722;29;20469;-87
2024/02/13 10:58:00;;;;;;;5.78;4.05;;;333.10;2329.60;;;;;;4841509;29;20468;-83
2024/02/13 11:00:27;;;;;;;7.40;5.28;;;333.00;2329.60;;;;;;4824216;29;20058;-84
2024/02/13 11:02:55;;;;;;;17.17;13.48;;;333.00;2329.60;;;;;;4824388;29;20026;-84
2024/02/13 11:05:27;;;;;;;15.80;11.93;;;333.10;2329.60;;;;;;4824441;29;20556;-89
2024/02/13 11:07:54;;;;;;;15.95;11.25;;;333.40;2329.60;;;;;;4824132;29;20473;-85
2024/02/13 11:10:29;;;;;;;12.02;7.38;;;333.50;2329.60;;;;;;4824491;29;20042;-86
2024/02/13 11:12:55;;;;;;;11.38;8.88;;;333.40;2329.60;;;;;;4824451;29;20026;-92
2024/02/13 11:15:20;;;;;;;13.10;9.38;;;333.40;2329.60;;;;;;4822907;29;20509;-77
2024/02/13 11:17:47;;;;;;;9.55;7.03;;;333.20;2329.60;;;;;;4833915;29;20491;-77
2024/02/13 11:20:15;;;;;;;8.35;6.32;;;333.00;2329.60;;;;;;4840313;29;20018;-76
2024/02/13 11:22:51;;;;;;;91.30;50.97;;;332.90;2329.60;;;;;;4839930;29;20034;-76
2024/02/13 11:25:17;;;;;;;22.05;11.20;;;308.00;2304.00;;;;;;4840077;29;20105;-76
2024/02/13 11:27:44;;;;;;;94.75;49.20;;;308.10;2304.00;;;;;;4839866;29;20022;-76
2024/02/13 11:30:26;;;;;;;54.08;31.50;;;308.10;2304.00;;;;;;4840038;29;20026;-76
2024/02/13 11:33:01;;;;;;;53.58;31.85;;;307.90;2304.00;;;;;;4840113;29;20022;-78
2024/02/13 11:35:31;;;;;;;25.13;12.02;;;307.90;2304.00;;;;;;4823685;29;20386;-76
2024/02/13 11:38:08;;;;;;;23.70;14.88;;;307.80;2304.00;;;;;;4839955;29;20034;-77
2024/02/13 11:40:41;;;;;;;10.52;7.30;;;307.80;2304.00;;;;;;4839724;29;20026;-76
2024/02/13 11:43:30;;;;;;;21.30;14.82;;;307.70;2304.00;;;;;;4840071;29;20061;-77
2024/02/13 11:46:00;;;;;;;32.83;21.42;;;307.80;2304.00;;;;;;4839852;29;20365;-74
2024/02/13 11:48:26;;;;;;;18.58;13.20;;;307.90;2304.00;;;;;;4823013;29;20034;-74
2024/02/13 11:50:55;;;;;;;22.13;13.82;;;308.10;2304.00;;;;;;4839296;29;20037;-78
2024/02/13 11:53:24;;;;;;;9.30;8.30;;;308.10;2304.00;;;;;;4839548;29;20076;-81
2024/02/13 11:55:54;;;;;;;10.80;7.95;;;332.90;2329.60;;;;;;4839809;29;20037;-77
2024/02/13 11:58:22;;;;;;;11.23;7.28;;;308.10;2304.00;;;;;;4839677;29;20046;-77
2024/02/13 12:01:18;;;;;;;12.70;8.75;;;308.10;2304.00;;;;;;4839841;29;20097;-78
2024/02/13 12:03:43;;;;;;;31.00;19.77;;;308.10;2304.00;;;;;;4838287;29;20431;-77
2024/02/13 12:06:10;;;;;;;11.88;7.88;;;332.80;2329.60;;;;;;4839673;29;20087;-75
2024/02/13 12:08:40;;;;;;;66.90;42.25;;;332.90;2329.60;;;;;;4839247;29;20511;-77
2024/02/13 12:11:07;;;;;;;33.78;24.65;;;332.90;2329.60;;;;;;4839659;29;20057;-75
2024/02/13 12:13:34;;;;;;;22.75;15.05;;;333.00;2329.60;;;;;;4839145;29;20018;-73
2024/02/13 12:16:00;;;;;;;19.10;12.65;;;333.00;2329.60;;;;;;4839551;29;20060;-77
2024/02/13 12:18:32;;;;;;;66.50;38.92;;;333.00;2329.60;;;;;;4838832;29;20022;-77
2024/02/13 12:20:59;;;;;;;31.15;20.65;;;333.00;2329.60;;;;;;4839187;29;20507;-77
2024/02/13 12:23:25;;;;;;;27.13;17.15;;;333.20;2329.60;;;;;;4838698;29;20477;-74
2024/02/13 12:26:01;;;;;;;18.98;11.75;;;333.10;2329.60;;;;;;4839120;29;20045;-74
2024/02/13 12:28:28;;;;;;;25.35;15.02;;;333.10;2329.60;;;;;;4838947;29;20530;-75
2024/02/13 12:30:55;;;;;;;47.88;29.67;;;332.90;2329.60;;;;;;4822294;29;20435;-74
2024/02/13 12:33:22;;;;;;;25.02;15.40;;;307.90;2304.00;;;;;;4839276;29;20436;-81
2024/02/13 12:36:18;;;;;;;26.58;15.88;;;307.70;2304.00;;;;;;4839580;29;20127;-85
2024/02/13 12:38:45;;;;;;;12.88;9.43;;;307.70;2304.00;;;;;;4823226;29;20367;-82
2024/02/13 12:41:11;;;;;;;18.77;13.75;;;307.60;2304.00;;;;;;4839397;29;20045;-84